Millport, Pennsylvania
Current Conditions -  °F | °C
As of 2:56 PM on Friday 28 Nov 2014 (Local Time) from KELZ Reporting Station
Few Clouds Few Clouds  
Wind Chill:   Ceiling: Unl
Heat Index: 21°   Visibility: 10mi
Dew Point:   Wind: 14mph
Humidity: 60%   Direction: 280°W
Pressure: 30.13"   Gusts: NA
Location:  41.9376°N, 78.1608°W
Report Text: KELZ 281956Z AUTO 28012KT 10SM FEW032 M06/M13 A3013 RMK AO2 SLP235 T10611128
Loading
Personal Weather Stations






























Interactive Weather Map New forecast layout! Learn more

10-Day Weather Forecast

Advertisements
Track Severe Weather on mobile